Time;durP1;ratioP1;P1;durP2;ratioP2;P2;SDS_P1;SDS_P2;PMS_P1;PMS_P2;Temp;Humidity;BMP_temperature;BMP_pressure;BME280_temperature;BME280_humidity;BME280_pressure;Samples;Min_cycle;Max_cycle;Signal;HPM_P1;HPM_P2
2024/01/08 00:02:26;;;;;;;6.53;4.00;;;-3.40;99.90;;;;;;5005196;28;20260;-77
2024/01/08 00:04:54;;;;;;;3.25;2.90;;;-3.40;99.90;;;;;;4989856;28;20229;-79
2024/01/08 00:07:20;;;;;;;8.40;4.35;;;-3.40;99.90;;;;;;4991347;28;20746;-79
2024/01/08 00:09:49;;;;;;;4.95;3.35;;;-3.50;99.90;;;;;;4998224;28;20231;-79
2024/01/08 00:12:16;;;;;;;3.55;3.22;;;-3.50;99.90;;;;;;5012136;28;20240;-80
2024/01/08 00:14:43;;;;;;;5.25;3.22;;;-3.50;99.90;;;;;;5013716;28;20298;-78
2024/01/08 00:17:10;;;;;;;4.28;2.70;;;-3.50;99.90;;;;;;5008363;28;20715;-81
2024/01/08 00:19:37;;;;;;;5.30;2.53;;;-3.50;99.90;;;;;;5001390;28;20205;-79
2024/01/08 00:22:04;;;;;;;4.72;3.55;;;-3.50;99.90;;;;;;5009362;28;20251;-81
2024/01/08 00:24:31;;;;;;;5.25;3.50;;;-3.60;99.90;;;;;;5018265;28;20216;-79
2024/01/08 00:26:59;;;;;;;4.93;3.47;;;-3.60;99.90;;;;;;5012773;28;20658;-78
2024/01/08 00:29:26;;;;;;;3.90;2.72;;;-3.60;99.90;;;;;;5004662;28;20259;-82
2024/01/08 00:31:53;;;;;;;4.30;2.13;;;-3.60;99.90;;;;;;5003186;28;20218;-79
2024/01/08 00:34:20;;;;;;;3.10;2.80;;;-3.60;99.90;;;;;;5000992;28;20206;-81
2024/01/08 00:36:47;;;;;;;2.80;2.60;;;-3.60;99.90;;;;;;5010713;28;20578;-80
2024/01/08 00:39:14;;;;;;;3.22;2.20;;;-3.70;99.90;;;;;;5020339;28;20740;-79
2024/01/08 00:41:41;;;;;;;6.18;2.78;;;-3.70;99.90;;;;;;5000874;28;20285;-78
2024/01/08 00:44:10;;;;;;;4.20;2.35;;;-3.70;99.90;;;;;;5008031;28;20232;-80
2024/01/08 00:46:36;;;;;;;2.13;1.92;;;-3.70;99.90;;;;;;4998460;28;20778;-78
2024/01/08 00:49:03;;;;;;;5.18;4.40;;;-3.70;99.90;;;;;;5008929;28;20283;-80
2024/01/08 00:51:31;;;;;;;5.05;3.30;;;-3.70;99.90;;;;;;5008214;28;20281;-80
2024/01/08 00:53:58;;;;;;;3.42;2.58;;;-3.70;99.90;;;;;;5008391;28;20729;-78
2024/01/08 00:56:25;;;;;;;3.40;2.03;;;-3.70;99.90;;;;;;5005707;28;20352;-81
2024/01/08 00:58:52;;;;;;;3.83;2.53;;;-3.70;99.90;;;;;;5000740;28;20205;-79
2024/01/08 01:01:20;;;;;;;3.42;2.38;;;-3.70;99.90;;;;;;5008867;28;21095;-81
2024/01/08 01:03:48;;;;;;;2.42;2.10;;;-3.70;99.90;;;;;;5012731;28;20737;-80
2024/01/08 01:06:20;;;;;;;3.60;2.75;;;-3.70;99.90;;;;;;5009722;28;20231;-81
2024/01/08 01:08:47;;;;;;;2.38;1.95;;;-3.70;99.90;;;;;;5009993;28;20209;-81
2024/01/08 01:11:15;;;;;;;3.13;2.65;;;-3.70;99.90;;;;;;5002410;28;20232;-79
2024/01/08 01:13:42;;;;;;;3.05;2.83;;;-3.70;99.90;;;;;;5014149;28;20205;-80
2024/01/08 01:16:10;;;;;;;3.95;2.85;;;-3.70;99.90;;;;;;5013277;28;20398;-79
2024/01/08 01:18:38;;;;;;;2.38;2.17;;;-3.70;99.90;;;;;;5008280;28;20213;-78
2024/01/08 01:21:05;;;;;;;3.00;2.10;;;-3.70;99.90;;;;;;5004084;28;20201;-78
2024/01/08 01:23:32;;;;;;;3.22;1.55;;;-3.70;99.90;;;;;;5009627;28;20211;-79
2024/01/08 01:25:59;;;;;;;3.83;3.42;;;-3.70;99.90;;;;;;5002814;28;20210;-79
2024/01/08 01:28:26;;;;;;;2.60;2.30;;;-3.70;99.90;;;;;;5005994;28;20706;-78
2024/01/08 01:30:53;;;;;;;2.80;2.47;;;-3.70;99.90;;;;;;4993059;28;20296;-81
2024/01/08 01:33:20;;;;;;;7.47;2.55;;;-3.70;99.90;;;;;;5032385;28;20231;-80
2024/01/08 01:35:48;;;;;;;4.88;2.60;;;-3.70;99.90;;;;;;5007421;28;20255;-80
2024/01/08 01:38:16;;;;;;;3.85;2.85;;;-3.70;99.90;;;;;;4998708;28;20264;-80
2024/01/08 01:40:46;;;;;;;4.15;2.83;;;-3.70;99.90;;;;;;5012970;28;20293;-82
2024/01/08 01:43:24;;;;;;;2.72;2.25;;;-3.70;99.90;;;;;;5070332;28;20228;-80
2024/01/08 01:45:53;;;;;;;4.30;3.05;;;-3.70;99.90;;;;;;5006373;28;20209;-82
2024/01/08 01:48:21;;;;;;;4.43;3.20;;;-3.70;99.90;;;;;;5007491;28;20287;-79
2024/01/08 01:50:49;;;;;;;4.60;3.20;;;-3.70;99.90;;;;;;5012347;28;20752;-78
2024/01/08 01:53:16;;;;;;;3.45;3.13;;;-3.70;99.90;;;;;;5002281;28;20206;-81
2024/01/08 01:55:44;;;;;;;2.83;2.55;;;-3.70;99.90;;;;;;5009386;28;20228;-78
2024/01/08 01:58:13;;;;;;;2.20;1.65;;;-3.70;99.90;;;;;;5006867;28;20224;-79
2024/01/08 02:00:41;;;;;;;2.70;2.22;;;-3.70;99.90;;;;;;5004983;28;20255;-80
2024/01/08 02:03:09;;;;;;;3.70;3.00;;;-3.70;99.90;;;;;;5032536;28;20977;-79
2024/01/08 02:05:36;;;;;;;3.38;2.85;;;-3.70;99.90;;;;;;5004386;28;20687;-80
2024/01/08 02:08:05;;;;;;;5.32;3.15;;;-3.70;99.90;;;;;;5007935;28;20267;-77
2024/01/08 02:10:32;;;;;;;5.22;2.38;;;-3.70;99.90;;;;;;5005217;28;20912;-82
2024/01/08 02:13:01;;;;;;;3.42;2.38;;;-3.80;99.90;;;;;;5008560;28;20301;-81
2024/01/08 02:15:28;;;;;;;12.88;2.00;;;-3.80;99.90;;;;;;5008979;28;20245;-82
2024/01/08 02:17:55;;;;;;;4.20;2.75;;;-3.80;99.90;;;;;;5010971;28;20764;-83
2024/01/08 02:20:22;;;;;;;2.92;2.67;;;-3.70;99.90;;;;;;5003415;28;20292;-79
2024/01/08 02:22:51;;;;;;;4.55;2.63;;;-3.70;99.90;;;;;;5020545;28;20765;-78
2024/01/08 02:25:18;;;;;;;2.63;2.42;;;-3.70;99.90;;;;;;5004801;28;20213;-78
2024/01/08 02:27:45;;;;;;;2.85;2.10;;;-3.70;99.90;;;;;;5003559;28;20231;-82
2024/01/08 02:30:13;;;;;;;4.10;3.20;;;-3.70;99.90;;;;;;5004418;28;20262;-78
2024/01/08 02:32:40;;;;;;;6.13;2.22;;;-3.70;99.90;;;;;;5005412;28;20210;-79
2024/01/08 02:35:08;;;;;;;5.13;2.80;;;-3.70;99.90;;;;;;5024996;28;20660;-78
2024/01/08 02:37:35;;;;;;;2.75;2.03;;;-3.70;99.90;;;;;;5009331;28;20361;-78
2024/01/08 02:40:03;;;;;;;1.55;1.40;;;-3.70;99.90;;;;;;5075408;28;20204;-80
2024/01/08 02:42:30;;;;;;;4.88;2.85;;;-3.70;99.90;;;;;;5007660;28;20221;-79
2024/01/08 02:44:57;;;;;;;4.35;2.53;;;-3.70;99.90;;;;;;5021581;28;20304;-79
2024/01/08 02:47:24;;;;;;;2.70;1.70;;;-3.60;99.90;;;;;;5042565;28;20231;-80
2024/01/08 02:49:52;;;;;;;4.15;3.58;;;-3.70;99.90;;;;;;5026200;28;20254;-79
2024/01/08 02:52:19;;;;;;;2.53;1.60;;;-3.70;99.90;;;;;;4999078;28;20670;-79
2024/01/08 02:54:46;;;;;;;4.68;2.55;;;-3.70;99.90;;;;;;5003471;28;20211;-79
2024/01/08 02:57:14;;;;;;;6.40;2.28;;;-3.60;99.90;;;;;;5003499;28;20204;-79
2024/01/08 02:59:41;;;;;;;7.40;3.30;;;-3.70;99.90;;;;;;5032754;28;20270;-78
2024/01/08 03:02:08;;;;;;;1.52;1.30;;;-3.70;99.90;;;;;;5004151;28;20228;-79
2024/01/08 03:04:35;;;;;;;3.17;2.22;;;-3.60;99.90;;;;;;5006651;28;20256;-80
2024/01/08 03:07:02;;;;;;;5.70;2.60;;;-3.60;99.90;;;;;;5004591;28;20228;-77
2024/01/08 03:09:29;;;;;;;2.80;2.35;;;-3.70;99.90;;;;;;5004794;28;20202;-78
2024/01/08 03:11:56;;;;;;;5.90;2.50;;;-3.70;99.90;;;;;;5004153;28;20691;-78
2024/01/08 03:14:24;;;;;;;2.67;2.42;;;-3.70;99.90;;;;;;5014838;28;20197;-79
2024/01/08 03:16:51;;;;;;;6.72;2.88;;;-3.70;99.90;;;;;;5008440;28;20323;-80
2024/01/08 03:19:18;;;;;;;3.85;2.50;;;-3.70;99.90;;;;;;5005308;28;20264;-79
2024/01/08 03:21:45;;;;;;;8.52;3.50;;;-3.60;99.90;;;;;;4995885;28;20232;-77
2024/01/08 03:24:12;;;;;;;2.63;2.42;;;-3.60;99.90;;;;;;4994732;28;20311;-81
2024/01/08 03:26:39;;;;;;;3.15;2.95;;;-3.70;99.90;;;;;;4997736;28;20291;-78
2024/01/08 03:29:06;;;;;;;2.95;2.53;;;-3.70;99.90;;;;;;5012066;28;20634;-77
2024/01/08 03:31:40;;;;;;;4.63;3.35;;;-3.60;99.90;;;;;;5004568;28;20278;-78
2024/01/08 03:34:07;;;;;;;3.00;2.70;;;-3.70;99.90;;;;;;5006741;28;20234;-77
2024/01/08 03:36:34;;;;;;;3.20;2.85;;;-3.70;99.90;;;;;;5006774;28;20644;-78
2024/01/08 03:39:02;;;;;;;2.80;2.13;;;-3.70;99.90;;;;;;5003477;28;20287;-78
2024/01/08 03:41:29;;;;;;;4.68;2.95;;;-3.60;99.90;;;;;;5012437;28;21016;-78
2024/01/08 03:43:55;;;;;;;4.55;4.15;;;-3.50;99.90;;;;;;5002568;28;20300;-77
2024/01/08 03:46:22;;;;;;;3.25;2.60;;;-3.40;99.90;;;;;;5001351;28;20206;-77
2024/01/08 03:48:51;;;;;;;6.07;3.72;;;-3.40;99.90;;;;;;5011659;28;20814;-78
2024/01/08 03:51:18;;;;;;;4.63;3.00;;;-3.50;99.90;;;;;;4997825;28;20307;-80
2024/01/08 03:53:44;;;;;;;3.95;2.20;;;-3.50;99.90;;;;;;5027406;28;20239;-78
2024/01/08 03:56:11;;;;;;;3.33;3.05;;;-3.40;99.90;;;;;;4999050;28;20233;-80
2024/01/08 03:58:38;;;;;;;4.32;2.17;;;-3.50;99.90;;;;;;5001512;28;20899;-78
2024/01/08 04:01:05;;;;;;;5.32;3.65;;;-3.40;99.90;;;;;;5016867;28;20206;-77
2024/01/08 04:03:33;;;;;;;4.43;2.85;;;-3.30;99.90;;;;;;5017939;28;20226;-79
2024/01/08 04:06:01;;;;;;;3.15;2.85;;;-3.30;99.90;;;;;;5007894;28;20281;-80
2024/01/08 04:08:28;;;;;;;5.78;3.47;;;-3.30;99.90;;;;;;5014680;28;20202;-80
2024/01/08 04:10:55;;;;;;;20.17;4.20;;;-3.40;99.90;;;;;;5002895;28;20691;-78
2024/01/08 04:13:22;;;;;;;3.20;2.70;;;-3.40;99.90;;;;;;5007293;28;20203;-78
2024/01/08 04:15:49;;;;;;;4.93;3.10;;;-3.40;99.90;;;;;;5026920;28;20233;-78
2024/01/08 04:18:16;;;;;;;3.55;3.22;;;-3.50;99.90;;;;;;5011308;28;20234;-78
2024/01/08 04:20:43;;;;;;;2.65;2.35;;;-3.50;99.90;;;;;;5004163;28;20235;-78
2024/01/08 04:23:11;;;;;;;4.35;3.95;;;-3.60;99.90;;;;;;5009702;28;20226;-79
2024/01/08 04:25:38;;;;;;;3.78;3.20;;;-3.60;99.90;;;;;;5010439;28;20264;-78
2024/01/08 04:28:06;;;;;;;3.67;3.30;;;-3.50;99.90;;;;;;4999872;28;20286;-78
2024/01/08 04:30:33;;;;;;;3.08;2.50;;;-3.20;99.90;;;;;;5032471;28;20244;-78
2024/01/08 04:33:00;;;;;;;4.78;3.22;;;-3.30;99.90;;;;;;5026400;28;20260;-81
2024/01/08 04:35:27;;;;;;;4.25;3.80;;;-3.40;99.90;;;;;;5003814;28;20234;-81
2024/01/08 04:37:54;;;;;;;3.42;2.90;;;-3.40;99.90;;;;;;5031033;28;20312;-77
2024/01/08 04:40:22;;;;;;;3.83;2.95;;;-3.30;99.90;;;;;;5010723;28;20238;-78
2024/01/08 04:42:49;;;;;;;5.68;4.63;;;-3.30;99.90;;;;;;5003310;28;20257;-78
2024/01/08 04:45:16;;;;;;;5.05;3.72;;;-3.20;99.90;;;;;;4989531;28;20724;-81
2024/01/08 04:47:43;;;;;;;3.20;2.97;;;-3.10;99.90;;;;;;5003499;28;20205;-77
2024/01/08 04:50:10;;;;;;;5.20;3.35;;;-3.10;99.90;;;;;;5003911;28;20223;-79
2024/01/08 04:52:37;;;;;;;4.03;3.63;;;-3.10;99.90;;;;;;4994262;28;20786;-79
2024/01/08 04:55:05;;;;;;;6.55;4.03;;;-3.20;99.90;;;;;;5003258;28;20211;-82
2024/01/08 04:57:33;;;;;;;3.72;2.67;;;-3.10;99.90;;;;;;4996217;28;20284;-78
2024/01/08 05:00:00;;;;;;;4.35;3.60;;;-3.10;99.90;;;;;;5003310;28;20768;-78
2024/01/08 05:02:27;;;;;;;5.55;3.75;;;-3.20;99.90;;;;;;4993564;28;20309;-79
2024/01/08 05:04:54;;;;;;;3.55;3.22;;;-3.30;99.90;;;;;;5008712;28;20256;-78
2024/01/08 05:07:21;;;;;;;3.90;2.88;;;-3.40;99.90;;;;;;5001418;28;20258;-78
2024/01/08 05:09:48;;;;;;;3.70;3.38;;;-3.40;99.90;;;;;;5013502;28;20218;-78
2024/01/08 05:12:15;;;;;;;3.92;3.55;;;-3.40;99.90;;;;;;5016728;28;20230;-82
2024/01/08 05:14:43;;;;;;;4.85;4.35;;;-3.30;99.90;;;;;;5008444;28;20231;-78
2024/01/08 05:17:10;;;;;;;5.88;3.40;;;-3.30;99.90;;;;;;5044639;28;20231;-78
2024/01/08 05:19:37;;;;;;;4.60;3.80;;;-3.40;99.90;;;;;;5070278;28;20230;-78
2024/01/08 05:22:04;;;;;;;3.45;3.15;;;-3.40;99.90;;;;;;5046348;28;20235;-78
2024/01/08 05:24:31;;;;;;;5.78;3.10;;;-3.50;99.90;;;;;;5027347;28;20961;-77
2024/01/08 05:26:58;;;;;;;4.05;3.05;;;-3.40;99.90;;;;;;5011403;28;20243;-78
2024/01/08 05:29:25;;;;;;;4.72;3.08;;;-3.30;99.90;;;;;;5024238;28;20283;-77
2024/01/08 05:31:53;;;;;;;2.58;2.15;;;-3.30;99.90;;;;;;5035247;28;20225;-77
2024/01/08 05:34:20;;;;;;;5.03;1.98;;;-3.30;99.90;;;;;;5056277;28;20196;-77
2024/01/08 05:36:47;;;;;;;3.17;2.58;;;-3.30;99.90;;;;;;5007691;28;20219;-77
2024/01/08 05:39:16;;;;;;;2.60;2.40;;;-3.30;99.90;;;;;;5029202;28;20199;-77
2024/01/08 05:41:43;;;;;;;3.60;3.30;;;-3.40;99.90;;;;;;5081223;28;20250;-78
2024/01/08 05:44:10;;;;;;;2.72;2.60;;;-3.30;99.90;;;;;;5052915;28;20253;-77
2024/01/08 05:46:42;;;;;;;4.70;3.63;;;-3.20;99.90;;;;;;5031908;28;20222;-77
2024/01/08 05:49:11;;;;;;;4.70;3.20;;;-3.20;99.90;;;;;;5037253;28;21277;-76
2024/01/08 05:51:38;;;;;;;4.18;2.92;;;-3.30;99.90;;;;;;5017006;28;20276;-77
2024/01/08 05:54:05;;;;;;;3.03;2.42;;;-3.20;99.90;;;;;;5009899;28;20518;-76
2024/01/08 05:56:32;;;;;;;2.88;2.30;;;-3.20;99.90;;;;;;5009571;28;20319;-78
2024/01/08 05:59:00;;;;;;;2.60;2.40;;;-3.20;99.90;;;;;;5062760;28;20290;-76
2024/01/08 06:01:27;;;;;;;4.00;3.60;;;-3.20;99.90;;;;;;5035404;28;20300;-75
2024/01/08 06:03:54;;;;;;;5.00;3.50;;;-3.20;99.90;;;;;;5016606;28;20345;-76
2024/01/08 06:06:22;;;;;;;2.58;2.35;;;-3.20;99.90;;;;;;5006822;28;20615;-76
2024/01/08 06:08:49;;;;;;;3.00;2.40;;;-3.20;99.90;;;;;;5004556;28;20234;-79
2024/01/08 06:11:16;;;;;;;5.35;3.90;;;-3.20;99.90;;;;;;5039059;28;20233;-80
2024/01/08 06:13:43;;;;;;;4.00;3.58;;;-3.30;99.90;;;;;;5026484;28;20659;-76
2024/01/08 06:16:16;;;;;;;2.20;2.00;;;-3.20;99.90;;;;;;5039005;28;20381;-79
2024/01/08 06:18:43;;;;;;;5.90;3.53;;;-3.10;99.90;;;;;;5034954;28;20294;-77
2024/01/08 06:21:10;;;;;;;4.07;3.50;;;-3.20;99.90;;;;;;5020478;28;20238;-77
2024/01/08 06:23:38;;;;;;;5.10;3.30;;;-3.20;99.90;;;;;;5022332;28;20284;-77
2024/01/08 06:26:05;;;;;;;4.50;3.47;;;-3.20;99.90;;;;;;5006069;28;20239;-76
2024/01/08 06:28:33;;;;;;;4.30;3.38;;;-3.20;99.90;;;;;;5061182;28;20669;-78
2024/01/08 06:31:04;;;;;;;4.85;3.95;;;-3.10;99.90;;;;;;5010788;28;20282;-76
2024/01/08 06:33:31;;;;;;;4.13;3.50;;;-3.00;99.90;;;;;;5003448;28;20296;-77
2024/01/08 06:35:58;;;;;;;5.53;3.50;;;-3.00;99.90;;;;;;5007738;28;20210;-77
2024/01/08 06:38:25;;;;;;;3.72;3.40;;;-3.00;99.90;;;;;;5038363;28;20320;-79
2024/01/08 06:40:53;;;;;;;3.00;2.40;;;-3.10;99.90;;;;;;5015974;28;20304;-77
2024/01/08 06:43:20;;;;;;;5.38;3.40;;;-3.20;99.90;;;;;;5067786;28;20715;-78
2024/01/08 06:45:48;;;;;;;5.85;3.50;;;-3.10;99.90;;;;;;5010445;28;20627;-76
2024/01/08 06:48:15;;;;;;;3.33;3.03;;;-3.10;99.90;;;;;;5004604;28;20213;-78
2024/01/08 06:50:42;;;;;;;6.82;4.95;;;-3.10;99.90;;;;;;5025298;28;20235;-79
2024/01/08 06:53:09;;;;;;;4.03;3.30;;;-3.10;99.90;;;;;;5004731;28;20887;-77
2024/01/08 06:55:36;;;;;;;4.93;3.92;;;-3.10;99.90;;;;;;5019106;28;20202;-81
2024/01/08 06:58:04;;;;;;;4.78;2.85;;;-3.10;99.90;;;;;;5049214;28;20238;-77
2024/01/08 07:00:31;;;;;;;4.55;3.60;;;-3.10;99.90;;;;;;5045072;28;20239;-77
2024/01/08 07:02:58;;;;;;;4.70;3.53;;;-3.10;99.90;;;;;;5061735;28;20203;-77
2024/01/08 07:05:25;;;;;;;3.45;2.95;;;-3.20;99.90;;;;;;5004108;28;20574;-77
2024/01/08 07:07:53;;;;;;;4.10;3.42;;;-3.20;99.90;;;;;;5036799;28;20206;-77
2024/01/08 07:10:20;;;;;;;5.50;3.97;;;-3.20;99.90;;;;;;5007200;28;20249;-76
2024/01/08 07:12:47;;;;;;;3.35;2.92;;;-3.20;99.90;;;;;;5026936;28;20235;-78
2024/01/08 07:15:40;;;;;;;6.53;3.92;;;-3.10;99.90;;;;;;5013330;28;20292;-78
2024/01/08 07:18:09;;;;;;;6.93;4.07;;;-3.00;99.90;;;;;;5072625;28;20242;-78
2024/01/08 07:20:37;;;;;;;3.58;3.08;;;-3.00;99.90;;;;;;5013395;28;20296;-77
2024/01/08 07:23:05;;;;;;;2.83;2.25;;;-3.00;99.90;;;;;;5018435;28;20213;-79
2024/01/08 07:25:36;;;;;;;3.95;3.28;;;-3.10;99.90;;;;;;5023113;28;20656;-78
2024/01/08 07:28:03;;;;;;;4.20;3.45;;;-3.00;99.90;;;;;;4997521;28;20575;-81
2024/01/08 07:30:30;;;;;;;8.38;5.07;;;-3.10;99.90;;;;;;5003886;28;20274;-78
2024/01/08 07:32:59;;;;;;;6.05;4.28;;;-3.00;99.90;;;;;;5048866;28;20905;-78
2024/01/08 07:35:26;;;;;;;6.03;3.67;;;-3.00;99.90;;;;;;5049241;28;20214;-76
2024/01/08 07:37:56;;;;;;;5.85;4.25;;;-3.00;99.90;;;;;;5038470;28;20256;-75
2024/01/08 07:40:24;;;;;;;4.20;3.80;;;-3.10;99.90;;;;;;5026524;28;20252;-77
2024/01/08 07:42:52;;;;;;;5.63;4.22;;;-3.00;99.90;;;;;;5073657;28;20800;-79
2024/01/08 07:45:19;;;;;;;5.85;5.20;;;-3.00;99.90;;;;;;5050093;28;20211;-76
2024/01/08 07:47:46;;;;;;;7.15;4.32;;;-2.90;99.90;;;;;;5034806;28;20205;-77
2024/01/08 07:50:15;;;;;;;7.07;4.35;;;-3.00;99.90;;;;;;5003417;28;20218;-80
2024/01/08 07:52:42;;;;;;;5.10;3.13;;;-3.00;99.90;;;;;;5010665;28;20199;-85
2024/01/08 07:55:09;;;;;;;5.50;4.20;;;-3.00;99.90;;;;;;5025554;28;20822;-73
2024/01/08 07:57:36;;;;;;;7.53;5.00;;;-2.90;99.90;;;;;;5016083;28;20205;-74
2024/01/08 08:00:06;;;;;;;6.25;4.40;;;-3.00;99.90;;;;;;5012009;28;20751;-79
2024/01/08 08:02:33;;;;;;;9.85;6.30;;;-3.00;99.90;;;;;;5022546;28;20195;-77
2024/01/08 08:05:00;;;;;;;5.20;3.75;;;-3.00;99.90;;;;;;5016679;28;20262;-78
2024/01/08 08:07:29;;;;;;;8.48;4.85;;;-3.00;99.90;;;;;;5024073;28;20205;-77
2024/01/08 08:09:56;;;;;;;6.07;4.40;;;-2.90;99.90;;;;;;5018008;28;20298;-81
2024/01/08 08:12:23;;;;;;;7.50;4.13;;;-2.90;99.90;;;;;;5019273;28;20237;-78
2024/01/08 08:14:50;;;;;;;5.65;3.53;;;-2.80;99.90;;;;;;5007858;28;20271;-77
2024/01/08 08:17:17;;;;;;;4.13;2.95;;;-2.80;99.90;;;;;;5066842;28;20596;-79
2024/01/08 08:19:45;;;;;;;4.50;3.95;;;-3.00;99.90;;;;;;5016314;28;20207;-78
2024/01/08 08:22:12;;;;;;;2.63;2.42;;;-3.00;99.90;;;;;;5018108;28;20202;-79
2024/01/08 08:24:41;;;;;;;4.53;3.30;;;-3.10;99.90;;;;;;5002275;28;20721;-77
2024/01/08 08:27:09;;;;;;;6.53;4.78;;;-3.10;99.90;;;;;;5011185;28;20240;-75
2024/01/08 08:29:37;;;;;;;5.50;3.13;;;-3.10;99.90;;;;;;5010008;28;20207;-81
2024/01/08 08:32:05;;;;;;;6.00;2.95;;;-3.10;99.90;;;;;;5004759;28;20234;-75
2024/01/08 08:34:32;;;;;;;5.78;2.78;;;-3.10;99.90;;;;;;5011879;28;20257;-85
2024/01/08 08:36:59;;;;;;;4.03;3.70;;;-3.20;99.90;;;;;;5015372;28;20210;-76
2024/01/08 08:39:26;;;;;;;5.47;3.85;;;-3.20;99.90;;;;;;5004507;28;20204;-77
2024/01/08 08:41:56;;;;;;;4.00;3.22;;;-3.30;99.90;;;;;;5031722;28;20267;-76
2024/01/08 08:44:23;;;;;;;4.22;3.00;;;-3.40;99.90;;;;;;5002463;28;20625;-77
2024/01/08 08:46:50;;;;;;;4.15;2.97;;;-3.50;99.90;;;;;;5006572;28;20212;-77
2024/01/08 08:49:17;;;;;;;3.25;2.95;;;-3.50;99.90;;;;;;5011153;28;20243;-79
2024/01/08 08:51:44;;;;;;;3.97;2.60;;;-3.40;99.90;;;;;;5013999;28;20225;-77
2024/01/08 08:54:11;;;;;;;4.18;3.10;;;-3.50;99.90;;;;;;5051615;28;20237;-78
2024/01/08 08:56:39;;;;;;;3.67;2.80;;;-3.40;99.90;;;;;;5013486;28;20303;-77
2024/01/08 08:59:07;;;;;;;3.58;2.75;;;-3.40;99.90;;;;;;5031736;28;20216;-78
2024/01/08 09:01:34;;;;;;;3.50;3.20;;;-3.30;99.90;;;;;;5010685;28;20868;-82
2024/01/08 09:04:01;;;;;;;3.45;2.97;;;-3.40;99.90;;;;;;5038181;28;20252;-83
2024/01/08 09:06:33;;;;;;;2.97;2.00;;;-3.40;99.90;;;;;;5010228;28;20294;-78
2024/01/08 09:09:00;;;;;;;5.15;3.20;;;-3.40;99.90;;;;;;5053562;28;20246;-79
2024/01/08 09:11:28;;;;;;;4.25;2.75;;;-3.40;99.90;;;;;;5013158;28;20258;-78
2024/01/08 09:13:55;;;;;;;4.47;3.13;;;-3.40;99.90;;;;;;5003872;28;20210;-82
2024/01/08 09:16:26;;;;;;;4.13;3.08;;;-3.50;99.90;;;;;;5005092;28;20285;-79
2024/01/08 09:18:53;;;;;;;3.65;2.53;;;-3.50;99.90;;;;;;5004016;28;20216;-79
2024/01/08 09:21:20;;;;;;;2.83;2.63;;;-3.40;99.90;;;;;;5030808;28;20659;-80
2024/01/08 09:23:47;;;;;;;3.53;1.88;;;-3.30;99.90;;;;;;5012324;28;20261;-79
2024/01/08 09:26:15;;;;;;;2.05;1.77;;;-3.30;99.90;;;;;;5005380;28;20201;-79
2024/01/08 09:28:42;;;;;;;4.80;2.88;;;-3.30;99.90;;;;;;5009243;28;20204;-80
2024/01/08 09:31:09;;;;;;;2.95;2.75;;;-3.30;99.90;;;;;;5014520;28;20717;-78
2024/01/08 09:33:37;;;;;;;3.53;3.20;;;-3.30;99.90;;;;;;5032751;28;20271;-82
2024/01/08 09:36:05;;;;;;;3.92;2.63;;;-3.30;99.90;;;;;;4999383;28;20702;-78
2024/01/08 09:38:32;;;;;;;5.97;3.67;;;-3.30;99.90;;;;;;5033961;28;20229;-80
2024/01/08 09:40:59;;;;;;;4.35;2.20;;;-3.30;99.90;;;;;;5005531;28;20263;-79
2024/01/08 09:43:28;;;;;;;2.60;2.35;;;-3.20;99.90;;;;;;5038985;28;20222;-78
2024/01/08 09:46:06;;;;;;;3.00;2.70;;;-3.20;99.90;;;;;;5006495;28;20296;-80
2024/01/08 09:48:35;;;;;;;3.20;2.90;;;-3.30;99.90;;;;;;5021057;28;20204;-80
2024/01/08 09:51:04;;;;;;;6.65;2.22;;;-3.30;99.90;;;;;;5022034;28;20252;-82
2024/01/08 09:53:32;;;;;;;3.40;2.95;;;-3.30;99.90;;;;;;5026287;28;20652;-78
2024/01/08 09:56:00;;;;;;;3.53;2.42;;;-3.20;99.90;;;;;;5028040;28;20205;-80
2024/01/08 09:58:27;;;;;;;2.28;2.05;;;-3.30;99.90;;;;;;5007776;28;20200;-84
2024/01/08 10:00:54;;;;;;;6.63;2.58;;;-3.20;99.90;;;;;;5072015;28;20318;-84
2024/01/08 10:03:22;;;;;;;2.67;2.45;;;-3.20;99.90;;;;;;5011708;28;20294;-81
2024/01/08 10:05:49;;;;;;;3.85;2.40;;;-3.20;99.90;;;;;;5013282;28;20316;-78
2024/01/08 10:08:18;;;;;;;3.95;3.38;;;-3.10;99.90;;;;;;5042836;28;20213;-78
2024/01/08 10:10:45;;;;;;;2.60;1.50;;;-3.10;99.90;;;;;;5041242;28;20285;-83
2024/01/08 10:13:14;;;;;;;4.00;2.95;;;-3.10;99.90;;;;;;5033388;28;20196;-80
2024/01/08 10:15:48;;;;;;;5.07;2.58;;;-3.10;99.90;;;;;;5011055;28;20741;-82
2024/01/08 10:18:17;;;;;;;3.42;2.25;;;-3.00;99.90;;;;;;5052098;28;20289;-81
2024/01/08 10:20:45;;;;;;;2.78;2.58;;;-3.10;99.90;;;;;;5042214;28;20211;-80
2024/01/08 10:23:16;;;;;;;5.35;2.40;;;-3.00;99.90;;;;;;5013584;28;20237;-81
2024/01/08 10:25:51;;;;;;;3.67;3.38;;;-3.00;99.90;;;;;;5010984;28;20230;-81
2024/01/08 10:28:18;;;;;;;2.83;1.90;;;-2.90;99.90;;;;;;5014034;28;20299;-81
2024/01/08 10:30:46;;;;;;;3.22;2.92;;;-2.90;99.90;;;;;;5049318;28;20298;-80
2024/01/08 10:33:13;;;;;;;3.38;2.60;;;-2.80;99.90;;;;;;5011084;28;20254;-82
2024/01/08 10:35:41;;;;;;;2.72;2.53;;;-2.80;99.90;;;;;;5013952;28;20200;-81
2024/01/08 10:38:08;;;;;;;2.35;2.15;;;-2.90;99.90;;;;;;5011365;28;20288;-81
2024/01/08 10:40:35;;;;;;;2.92;2.15;;;-3.00;99.90;;;;;;5043376;28;20213;-83
2024/01/08 10:43:07;;;;;;;2.63;2.28;;;-2.80;99.90;;;;;;5008337;28;20204;-82
2024/01/08 10:45:34;;;;;;;3.22;2.10;;;-2.90;99.90;;;;;;5032210;28;20228;-84
2024/01/08 10:48:11;;;;;;;4.25;2.72;;;-2.90;99.90;;;;;;5005028;28;20215;-81
2024/01/08 10:50:39;;;;;;;2.72;2.53;;;-2.90;99.90;;;;;;5044699;28;20203;-81
2024/01/08 10:53:14;;;;;;;3.97;3.03;;;-2.80;99.90;;;;;;5011830;28;20210;-81
2024/01/08 10:55:43;;;;;;;4.18;3.22;;;-2.80;99.90;;;;;;5001590;28;20624;-82
2024/01/08 10:58:17;;;;;;;6.57;3.40;;;-2.70;99.90;;;;;;5006833;28;20288;-84
2024/01/08 11:00:45;;;;;;;6.47;3.40;;;-2.80;99.90;;;;;;5040392;28;20198;-82
2024/01/08 11:03:12;;;;;;;4.30;2.90;;;-2.90;99.90;;;;;;5013970;28;20260;-83
2024/01/08 11:05:39;;;;;;;3.05;2.80;;;-2.90;99.90;;;;;;5034296;28;20804;-82
2024/01/08 11:08:09;;;;;;;5.78;3.60;;;-2.90;99.90;;;;;;5008846;28;20290;-84
2024/01/08 11:10:36;;;;;;;3.92;2.75;;;-2.80;99.90;;;;;;5003870;28;20264;-82
2024/01/08 11:13:05;;;;;;;4.55;2.75;;;-2.90;99.90;;;;;;5015664;28;20215;-83
2024/01/08 11:15:34;;;;;;;7.25;3.50;;;-2.90;99.90;;;;;;5008708;28;20249;-83
2024/01/08 11:18:03;;;;;;;4.25;3.22;;;-2.90;99.90;;;;;;5067074;28;20263;-82
2024/01/08 11:20:44;;;;;;;6.53;3.40;;;-2.90;99.90;;;;;;5004647;28;20301;-83
2024/01/08 11:23:40;;;;;;;5.57;3.95;;;-2.80;99.90;;;;;;5006300;28;20234;-82
2024/01/08 11:26:10;;;;;;;9.77;4.55;;;-2.80;99.90;;;;;;5010712;28;20780;-83
2024/01/08 11:28:38;;;;;;;5.07;2.70;;;-2.80;99.90;;;;;;5007353;28;20242;-83
2024/01/08 11:31:44;;;;;;;3.92;2.85;;;-3.00;99.90;;;;;;5030194;28;20209;-83
2024/01/08 11:34:38;;;;;;;3.50;3.20;;;-2.90;99.90;;;;;;5046453;28;20825;-82
2024/01/08 11:37:35;;;;;;;5.57;2.78;;;-2.90;99.90;;;;;;5016636;28;20352;-82
2024/01/08 11:40:04;;;;;;;6.00;4.32;;;-3.00;99.90;;;;;;5018974;28;20246;-83
2024/01/08 11:42:32;;;;;;;4.75;3.13;;;-2.90;99.90;;;;;;5025029;28;20203;-82
2024/01/08 11:45:00;;;;;;;3.47;3.17;;;-2.90;99.90;;;;;;5033381;28;20316;-83
2024/01/08 11:47:27;;;;;;;8.48;3.25;;;-2.90;99.90;;;;;;5030606;28;20247;-85
2024/01/08 11:49:55;;;;;;;6.10;3.80;;;-2.90;99.90;;;;;;5034622;28;20209;-82
2024/01/08 11:52:22;;;;;;;4.88;4.18;;;-3.00;99.90;;;;;;5016929;28;20242;-82
2024/01/08 11:54:52;;;;;;;7.45;3.53;;;-2.90;99.90;;;;;;5023662;28;20241;-83
2024/01/08 11:57:19;;;;;;;5.10;2.90;;;-2.90;99.90;;;;;;5004405;28;20798;-83
2024/01/08 11:59:47;;;;;;;4.07;2.83;;;-2.90;99.90;;;;;;5017255;28;20967;-83
2024/01/08 12:02:15;;;;;;;7.13;4.10;;;-2.90;99.90;;;;;;5006687;28;20743;-81
2024/01/08 12:04:43;;;;;;;6.90;4.25;;;-3.00;99.90;;;;;;5062110;28;20222;-82
2024/01/08 12:07:14;;;;;;;3.85;2.88;;;-3.00;99.90;;;;;;5007150;28;20195;-82
2024/01/08 12:09:41;;;;;;;5.50;3.53;;;-2.80;99.90;;;;;;5026376;28;20296;-79
2024/01/08 12:12:10;;;;;;;5.22;3.97;;;-2.80;99.90;;;;;;5029053;28;20197;-81
2024/01/08 12:14:39;;;;;;;3.22;3.00;;;-2.80;99.90;;;;;;4999765;28;20206;-81
2024/01/08 12:17:07;;;;;;;4.28;3.00;;;-2.90;99.90;;;;;;5031972;28;20282;-82
2024/01/08 12:19:36;;;;;;;4.57;3.03;;;-2.70;99.90;;;;;;5033052;28;20201;-81
2024/01/08 12:22:05;;;;;;;4.07;2.58;;;-2.50;99.90;;;;;;5020614;28;20202;-80
2024/01/08 12:24:35;;;;;;;4.88;3.08;;;-2.60;99.90;;;;;;5053046;28;20290;-82
2024/01/08 12:27:03;;;;;;;6.03;3.72;;;-2.50;99.90;;;;;;5006522;28;20214;-79
2024/01/08 12:29:30;;;;;;;4.43;3.65;;;-2.50;99.90;;;;;;5019520;28;20255;-80
2024/01/08 12:31:59;;;;;;;4.15;3.38;;;-2.40;99.90;;;;;;5069538;28;20208;-82
2024/01/08 12:34:30;;;;;;;6.45;3.47;;;-2.40;99.90;;;;;;5041065;28;20204;-80
2024/01/08 12:36:58;;;;;;;6.47;4.53;;;-2.30;99.90;;;;;;5017698;28;20294;-80
2024/01/08 12:39:25;;;;;;;4.78;3.00;;;-2.20;99.90;;;;;;5037814;28;20238;-81
2024/01/08 12:41:55;;;;;;;4.90;3.72;;;-2.30;99.90;;;;;;5048387;28;20199;-79
2024/01/08 12:44:24;;;;;;;3.45;3.03;;;-2.20;99.90;;;;;;5018291;28;20206;-80
2024/01/08 12:46:51;;;;;;;7.55;4.10;;;-2.20;99.90;;;;;;5037498;28;20254;-81
2024/01/08 12:49:18;;;;;;;4.68;3.03;;;-2.10;99.90;;;;;;5038163;28;20292;-82
2024/01/08 12:51:45;;;;;;;5.82;4.13;;;-2.30;99.90;;;;;;5027684;28;20198;-82
2024/01/08 12:54:12;;;;;;;3.17;2.88;;;-2.40;99.90;;;;;;5014922;28;20293;-85